Time;durP1;ratioP1;P1;durP2;ratioP2;P2;SDS_P1;SDS_P2;PMS_P1;PMS_P2;Temp;Humidity;BMP_temperature;BMP_pressure;BME280_temperature;BME280_humidity;BME280_pressure;Samples;Min_cycle;Max_cycle;Signal;HPM_P1;HPM_P2
2024/01/26 00:01:49;;;;;;;0.30;0.20;;;8.00;99.90;;;;;;5091945;28;20661;-80
2024/01/26 00:04:15;;;;;;;0.30;0.20;;;8.00;99.90;;;;;;5089889;28;20209;-83
2024/01/26 00:06:41;;;;;;;0.30;0.20;;;8.00;99.90;;;;;;5091583;28;20623;-82
2024/01/26 00:09:09;;;;;;;0.30;0.20;;;7.90;99.90;;;;;;5089538;28;20299;-83
2024/01/26 00:11:35;;;;;;;0.30;0.20;;;7.90;99.90;;;;;;5090215;28;20240;-80
2024/01/26 00:14:00;;;;;;;0.30;0.20;;;7.90;99.90;;;;;;5089464;28;20746;-79
2024/01/26 00:16:26;;;;;;;0.30;0.20;;;7.90;99.90;;;;;;5091269;28;20181;-79
2024/01/26 00:18:52;;;;;;;0.30;0.20;;;7.80;99.90;;;;;;5091208;28;20211;-83
2024/01/26 00:21:18;;;;;;;0.30;0.20;;;7.80;99.90;;;;;;5091547;28;20196;-80
2024/01/26 00:23:44;;;;;;;0.30;0.20;;;7.80;99.90;;;;;;5089571;28;20267;-83
2024/01/26 00:26:13;;;;;;;0.30;0.20;;;7.80;99.90;;;;;;5090865;28;20273;-79
2024/01/26 00:28:38;;;;;;;0.30;0.20;;;7.80;99.90;;;;;;5090917;28;20184;-83
2024/01/26 00:31:04;;;;;;;0.30;0.20;;;7.80;99.90;;;;;;5089292;28;20176;-79
2024/01/26 00:33:30;;;;;;;0.30;0.20;;;7.70;99.90;;;;;;5088935;28;20200;-79
2024/01/26 00:35:55;;;;;;;0.30;0.20;;;7.70;99.90;;;;;;5089322;28;20180;-80
2024/01/26 00:38:21;;;;;;;0.30;0.20;;;7.70;99.90;;;;;;5090824;28;20564;-80
2024/01/26 00:40:47;;;;;;;0.30;0.30;;;7.70;99.90;;;;;;5089304;28;20406;-79
2024/01/26 00:43:13;;;;;;;0.30;0.20;;;7.70;99.90;;;;;;5089179;28;20185;-80
2024/01/26 00:45:39;;;;;;;0.30;0.20;;;7.60;99.90;;;;;;5088724;28;20660;-83
2024/01/26 00:48:05;;;;;;;0.30;0.20;;;7.60;99.90;;;;;;5089081;28;20286;-80
2024/01/26 00:50:31;;;;;;;0.30;0.25;;;7.60;99.90;;;;;;5088990;28;20275;-81
2024/01/26 00:52:57;;;;;;;0.30;0.20;;;7.60;99.90;;;;;;5090805;28;20291;-82
2024/01/26 00:55:23;;;;;;;0.30;0.20;;;7.60;99.90;;;;;;5089066;28;20176;-79
2024/01/26 00:57:49;;;;;;;0.30;0.20;;;7.60;99.90;;;;;;5089455;28;20605;-84
2024/01/26 01:00:15;;;;;;;0.30;0.20;;;7.60;99.90;;;;;;5090487;28;20480;-82
2024/01/26 01:02:41;;;;;;;0.30;0.30;;;7.60;99.90;;;;;;5090421;28;20263;-78
2024/01/26 01:05:07;;;;;;;0.30;0.20;;;7.60;99.90;;;;;;5088907;28;20275;-82
2024/01/26 01:07:32;;;;;;;0.30;0.20;;;7.70;99.90;;;;;;5089004;28;20926;-82
2024/01/26 01:09:58;;;;;;;0.30;0.20;;;7.60;99.90;;;;;;5089698;28;20216;-82
2024/01/26 01:12:24;;;;;;;0.30;0.20;;;7.60;99.90;;;;;;5090223;28;20557;-82
2024/01/26 01:14:51;;;;;;;0.30;0.20;;;7.60;99.90;;;;;;5089900;28;20188;-78
2024/01/26 01:17:16;;;;;;;0.30;0.20;;;7.60;99.90;;;;;;5088745;28;20387;-78
2024/01/26 01:19:42;;;;;;;0.30;0.20;;;7.50;99.90;;;;;;5089814;28;20296;-79
2024/01/26 01:22:08;;;;;;;0.30;0.20;;;7.50;99.90;;;;;;5090116;28;20263;-78
2024/01/26 01:24:33;;;;;;;0.30;0.20;;;7.50;99.90;;;;;;5090065;28;20219;-82
2024/01/26 01:26:59;;;;;;;0.30;0.30;;;7.50;99.90;;;;;;5088824;28;20187;-79
2024/01/26 01:29:25;;;;;;;0.30;0.20;;;7.50;99.90;;;;;;5088270;28;20432;-78
2024/01/26 01:31:50;;;;;;;0.30;0.20;;;7.50;99.90;;;;;;5090371;28;20180;-79
2024/01/26 01:34:16;;;;;;;0.30;0.20;;;7.50;99.90;;;;;;5089417;28;20211;-83
2024/01/26 01:36:42;;;;;;;0.30;0.20;;;7.50;99.90;;;;;;5090125;28;20251;-79
2024/01/26 01:39:07;;;;;;;0.30;0.20;;;7.50;99.90;;;;;;5089460;28;20192;-78
2024/01/26 01:41:33;;;;;;;0.30;0.20;;;7.50;99.90;;;;;;5089920;28;20591;-82
2024/01/26 01:43:59;;;;;;;0.30;0.20;;;7.50;99.90;;;;;;5087694;28;20196;-82
2024/01/26 01:46:26;;;;;;;0.30;0.25;;;7.50;99.90;;;;;;5089592;28;20171;-79
2024/01/26 01:48:52;;;;;;;0.30;0.20;;;7.50;99.90;;;;;;5087937;28;20287;-82
2024/01/26 01:51:17;;;;;;;0.30;0.20;;;7.50;99.90;;;;;;5089550;28;20696;-78
2024/01/26 01:53:43;;;;;;;0.30;0.20;;;7.50;99.90;;;;;;5089460;28;20196;-78
2024/01/26 01:56:11;;;;;;;0.30;0.20;;;7.40;99.90;;;;;;5088974;28;20283;-82
2024/01/26 01:58:41;;;;;;;0.30;0.20;;;7.40;99.90;;;;;;5088896;28;20230;-82
2024/01/26 02:01:08;;;;;;;0.30;0.20;;;7.40;99.90;;;;;;5089281;28;20227;-82
2024/01/26 02:03:34;;;;;;;0.30;0.20;;;7.40;99.90;;;;;;5088186;28;20669;-82
2024/01/26 02:06:00;;;;;;;0.30;0.20;;;7.50;99.90;;;;;;5089298;28;20176;-82
2024/01/26 02:08:25;;;;;;;0.30;0.20;;;7.40;99.90;;;;;;5089295;28;20242;-82
2024/01/26 02:10:51;;;;;;;0.30;0.20;;;7.40;99.90;;;;;;5087863;28;20624;-78
2024/01/26 02:13:17;;;;;;;0.30;0.20;;;7.50;99.90;;;;;;5089365;28;20280;-82
2024/01/26 02:15:43;;;;;;;0.30;0.20;;;7.40;99.90;;;;;;5088321;28;20196;-82
2024/01/26 02:18:08;;;;;;;0.30;0.30;;;7.40;99.90;;;;;;5087902;28;20592;-78
2024/01/26 02:20:34;;;;;;;0.30;0.20;;;7.50;99.90;;;;;;5089810;28;20475;-78
2024/01/26 02:23:00;;;;;;;0.30;0.20;;;7.50;99.90;;;;;;5088089;28;20197;-82
2024/01/26 02:25:25;;;;;;;0.30;0.20;;;7.40;99.90;;;;;;5087912;28;20270;-78
2024/01/26 02:27:52;;;;;;;0.30;0.20;;;7.40;99.90;;;;;;5088103;28;20189;-82
2024/01/26 02:30:18;;;;;;;0.30;0.20;;;7.50;99.90;;;;;;5089385;28;20597;-78
2024/01/26 02:32:44;;;;;;;0.30;0.20;;;7.50;99.90;;;;;;5089237;28;20197;-82
2024/01/26 02:35:10;;;;;;;0.30;0.20;;;7.50;99.90;;;;;;5089333;28;20891;-78
2024/01/26 02:37:36;;;;;;;0.30;0.20;;;7.50;99.90;;;;;;5087890;28;20419;-78
2024/01/26 02:40:02;;;;;;;0.30;0.20;;;7.50;99.90;;;;;;5089240;28;20240;-82
2024/01/26 02:42:27;;;;;;;0.30;0.20;;;7.50;99.90;;;;;;5087731;28;20175;-82
2024/01/26 02:44:53;;;;;;;0.30;0.20;;;7.50;99.90;;;;;;5089117;28;20188;-78
2024/01/26 02:47:22;;;;;;;0.30;0.20;;;7.50;99.90;;;;;;5087691;28;20176;-79
2024/01/26 02:49:47;;;;;;;0.30;0.20;;;7.50;99.90;;;;;;5088493;28;20216;-78
2024/01/26 02:52:13;;;;;;;0.30;0.30;;;7.50;99.90;;;;;;5089453;28;20200;-82
2024/01/26 02:54:38;;;;;;;0.30;0.20;;;7.40;99.90;;;;;;5089112;28;20688;-82
2024/01/26 02:57:04;;;;;;;0.30;0.30;;;7.40;99.90;;;;;;5090461;28;20580;-78
2024/01/26 02:59:30;;;;;;;0.30;0.30;;;7.40;99.90;;;;;;5091442;28;20208;-81
2024/01/26 03:01:55;;;;;;;0.30;0.20;;;7.40;99.90;;;;;;5091448;28;20408;-78
2024/01/26 03:04:21;;;;;;;0.30;0.30;;;7.30;99.90;;;;;;5092596;28;20300;-84
2024/01/26 03:06:47;;;;;;;0.30;0.20;;;7.30;99.90;;;;;;5092796;28;20641;-78
2024/01/26 03:09:13;;;;;;;0.30;0.20;;;7.40;99.90;;;;;;5091969;28;20203;-78
2024/01/26 03:11:42;;;;;;;0.30;0.20;;;7.30;99.90;;;;;;5092465;28;20295;-82
2024/01/26 03:14:09;;;;;;;0.30;0.20;;;7.30;99.90;;;;;;5090830;28;20597;-82
2024/01/26 03:16:38;;;;;;;0.30;0.20;;;7.20;99.90;;;;;;5091318;28;20212;-81
2024/01/26 03:19:03;;;;;;;0.30;0.20;;;7.20;99.90;;;;;;5092083;28;20452;-78
2024/01/26 03:21:29;;;;;;;0.30;0.20;;;7.20;99.90;;;;;;5092292;28;20219;-82
2024/01/26 03:23:55;;;;;;;0.30;0.20;;;7.20;99.90;;;;;;5091874;28;20211;-78
2024/01/26 03:26:21;;;;;;;0.30;0.20;;;7.20;99.90;;;;;;5091319;28;20176;-78
2024/01/26 03:28:47;;;;;;;0.30;0.20;;;7.20;99.90;;;;;;5092538;28;20195;-82
2024/01/26 03:31:13;;;;;;;0.30;0.20;;;7.20;99.90;;;;;;5092299;28;20172;-82
2024/01/26 03:33:40;;;;;;;0.30;0.20;;;7.20;99.90;;;;;;5092241;28;20214;-78
2024/01/26 03:36:06;;;;;;;0.30;0.20;;;7.10;99.90;;;;;;5091862;28;20176;-78
2024/01/26 03:38:32;;;;;;;0.30;0.30;;;7.10;99.90;;;;;;5091950;28;20195;-78
2024/01/26 03:40:58;;;;;;;0.30;0.30;;;7.10;99.90;;;;;;5091576;28;20676;-81
2024/01/26 03:43:23;;;;;;;0.30;0.20;;;7.00;99.90;;;;;;5091784;28;20451;-78
2024/01/26 03:45:49;;;;;;;0.30;0.20;;;7.00;99.90;;;;;;5091608;28;20380;-78
2024/01/26 03:48:15;;;;;;;0.30;0.20;;;7.00;99.90;;;;;;5091611;28;20224;-82
2024/01/26 03:50:40;;;;;;;0.30;0.20;;;7.00;99.90;;;;;;5089752;28;20213;-78
2024/01/26 03:53:06;;;;;;;0.30;0.20;;;7.00;99.90;;;;;;5091751;28;20258;-78
2024/01/26 03:55:31;;;;;;;0.30;0.20;;;7.00;99.90;;;;;;5090457;28;20578;-81
2024/01/26 03:57:57;;;;;;;0.30;0.20;;;6.90;99.90;;;;;;5090304;28;20680;-78
2024/01/26 04:00:23;;;;;;;0.30;0.20;;;6.90;99.90;;;;;;5088644;28;20223;-82
2024/01/26 04:02:48;;;;;;;0.30;0.20;;;6.90;99.90;;;;;;5091098;28;20256;-82
2024/01/26 04:05:14;;;;;;;0.30;0.30;;;6.90;99.90;;;;;;5089685;28;20574;-78
2024/01/26 04:07:40;;;;;;;0.30;0.20;;;6.90;99.90;;;;;;5090284;28;20196;-78
2024/01/26 04:10:06;;;;;;;0.30;0.20;;;6.90;99.90;;;;;;5089489;28;20244;-82
2024/01/26 04:12:32;;;;;;;0.30;0.20;;;6.90;99.90;;;;;;5091545;28;20380;-82
2024/01/26 04:14:58;;;;;;;0.30;0.30;;;6.90;99.90;;;;;;5091551;28;20368;-78
2024/01/26 04:17:24;;;;;;;0.30;0.20;;;6.90;99.90;;;;;;5091297;28;20168;-79
2024/01/26 04:19:49;;;;;;;0.30;0.20;;;6.90;99.90;;;;;;5089848;28;20658;-82
2024/01/26 04:22:15;;;;;;;0.30;0.20;;;6.90;99.90;;;;;;5091247;28;20165;-82
2024/01/26 04:24:41;;;;;;;0.30;0.20;;;6.80;99.90;;;;;;5089540;28;20630;-78
2024/01/26 04:27:07;;;;;;;0.30;0.30;;;6.80;99.90;;;;;;5089974;28;20405;-80
2024/01/26 04:29:33;;;;;;;0.30;0.20;;;6.80;99.90;;;;;;5090917;28;20547;-78
2024/01/26 04:31:59;;;;;;;0.30;0.30;;;6.90;99.90;;;;;;5091026;28;20574;-82
2024/01/26 04:34:25;;;;;;;0.30;0.30;;;6.80;99.90;;;;;;5089245;28;20200;-82
2024/01/26 04:36:51;;;;;;;0.30;0.20;;;6.80;99.90;;;;;;5091153;28;20234;-79
2024/01/26 04:39:17;;;;;;;0.30;0.22;;;6.80;99.90;;;;;;5090571;28;20664;-78
2024/01/26 04:41:43;;;;;;;0.30;0.20;;;6.80;99.90;;;;;;5090669;28;20231;-78
2024/01/26 04:44:09;;;;;;;0.30;0.20;;;6.80;99.90;;;;;;5090324;28;20280;-82
2024/01/26 04:46:36;;;;;;;0.30;0.20;;;6.80;99.90;;;;;;5089513;28;20234;-83
2024/01/26 04:49:02;;;;;;;0.30;0.20;;;6.80;99.90;;;;;;5088839;28;20572;-79
2024/01/26 04:51:28;;;;;;;0.30;0.20;;;6.80;99.90;;;;;;5088747;28;20184;-82
2024/01/26 04:53:53;;;;;;;0.30;0.20;;;6.70;99.90;;;;;;5089672;28;20200;-83
2024/01/26 04:56:21;;;;;;;0.30;0.20;;;6.70;99.90;;;;;;5088441;28;20420;-79
2024/01/26 04:58:47;;;;;;;0.30;0.30;;;6.70;99.90;;;;;;5087924;28;20302;-78
2024/01/26 05:01:13;;;;;;;0.30;0.20;;;6.70;99.90;;;;;;5090332;28;20315;-78
2024/01/26 05:03:38;;;;;;;0.30;0.20;;;6.70;99.90;;;;;;5087563;28;20291;-82
2024/01/26 05:06:06;;;;;;;0.30;0.30;;;6.70;99.90;;;;;;5088929;28;20215;-81
2024/01/26 05:08:32;;;;;;;0.30;0.20;;;6.70;99.90;;;;;;5088933;28;20359;-83
2024/01/26 05:10:57;;;;;;;0.30;0.20;;;6.60;99.90;;;;;;5087329;28;20750;-82
2024/01/26 05:13:23;;;;;;;0.30;0.20;;;6.60;99.90;;;;;;5089942;28;20684;-82
2024/01/26 05:15:48;;;;;;;0.30;0.30;;;6.60;99.90;;;;;;5088302;28;20180;-83
2024/01/26 05:18:14;;;;;;;0.30;0.20;;;6.60;99.90;;;;;;5089950;28;20189;-80
2024/01/26 05:20:41;;;;;;;0.30;0.20;;;6.50;99.90;;;;;;5087897;28;20240;-78
2024/01/26 05:23:06;;;;;;;0.30;0.20;;;6.50;99.90;;;;;;5088626;28;20200;-78
2024/01/26 05:25:32;;;;;;;0.30;0.30;;;6.50;99.90;;;;;;5089082;28;20716;-83
2024/01/26 05:27:58;;;;;;;0.30;0.20;;;6.50;99.90;;;;;;5088266;28;20257;-82
2024/01/26 05:30:24;;;;;;;0.30;0.20;;;6.50;99.90;;;;;;5089126;28;20319;-78
2024/01/26 05:32:50;;;;;;;0.30;0.30;;;6.50;99.90;;;;;;5087937;28;20262;-82
2024/01/26 05:35:15;;;;;;;0.30;0.20;;;6.50;99.90;;;;;;5088157;28;20197;-78
2024/01/26 05:37:41;;;;;;;0.30;0.20;;;6.50;99.90;;;;;;5086976;28;20221;-82
2024/01/26 05:40:08;;;;;;;0.30;0.20;;;6.50;99.90;;;;;;5088845;28;20557;-83
2024/01/26 05:42:34;;;;;;;0.30;0.20;;;6.40;99.90;;;;;;5089447;28;20173;-78
2024/01/26 05:45:01;;;;;;;0.30;0.20;;;6.40;99.90;;;;;;5087710;28;20189;-78
2024/01/26 05:47:27;;;;;;;0.30;0.22;;;6.40;99.90;;;;;;5088982;28;20865;-78
2024/01/26 05:49:53;;;;;;;0.30;0.20;;;6.40;99.90;;;;;;5088663;28;20185;-82
2024/01/26 05:52:21;;;;;;;0.30;0.20;;;6.50;99.90;;;;;;5088688;28;20176;-78
2024/01/26 05:54:47;;;;;;;0.30;0.20;;;6.50;99.90;;;;;;5087753;28;20185;-78
2024/01/26 05:57:13;;;;;;;0.30;0.20;;;6.50;99.90;;;;;;5089165;28;20188;-81
2024/01/26 05:59:38;;;;;;;0.30;0.20;;;6.50;99.90;;;;;;5088484;28;20305;-78
2024/01/26 06:02:05;;;;;;;0.30;0.20;;;6.50;99.90;;;;;;5088475;28;20227;-78
2024/01/26 06:04:33;;;;;;;0.30;0.20;;;6.60;99.90;;;;;;5088754;28;20200;-78
2024/01/26 06:06:59;;;;;;;0.30;0.30;;;6.50;99.90;;;;;;5087861;28;20577;-79
2024/01/26 06:09:25;;;;;;;0.30;0.20;;;6.50;99.90;;;;;;5088358;28;20275;-83
2024/01/26 06:11:51;;;;;;;0.30;0.20;;;6.60;99.90;;;;;;5089273;28;20236;-82
2024/01/26 06:14:17;;;;;;;0.30;0.20;;;6.50;99.90;;;;;;5084926;28;20435;-79
2024/01/26 06:16:42;;;;;;;0.30;0.20;;;6.50;99.90;;;;;;5089108;28;20452;-79
2024/01/26 06:19:08;;;;;;;0.30;0.20;;;6.50;99.90;;;;;;5088690;28;20230;-78
2024/01/26 06:21:34;;;;;;;0.30;0.20;;;6.50;99.90;;;;;;5088493;28;20212;-79
2024/01/26 06:24:00;;;;;;;0.30;0.20;;;6.50;99.90;;;;;;5076730;28;20436;-83
2024/01/26 06:26:26;;;;;;;0.30;0.20;;;6.50;99.90;;;;;;5075852;28;20187;-78
2024/01/26 06:28:52;;;;;;;0.30;0.20;;;6.50;99.90;;;;;;5083219;28;20212;-83
2024/01/26 06:31:18;;;;;;;0.30;0.30;;;6.50;99.90;;;;;;5080235;28;20199;-83
2024/01/26 06:33:43;;;;;;;0.30;0.25;;;6.50;99.90;;;;;;5092007;28;20693;-78
2024/01/26 06:36:11;;;;;;;0.30;0.20;;;6.50;99.90;;;;;;5077779;28;20208;-82
2024/01/26 06:38:40;;;;;;;0.30;0.20;;;6.50;99.90;;;;;;5081328;28;20290;-78
2024/01/26 06:41:09;;;;;;;0.30;0.22;;;6.50;99.90;;;;;;5088079;28;20212;-77
2024/01/26 06:43:34;;;;;;;0.30;0.20;;;6.50;99.90;;;;;;5089151;28;20257;-78
2024/01/26 06:46:02;;;;;;;0.30;0.30;;;6.50;99.90;;;;;;5083807;28;20553;-78
2024/01/26 06:48:28;;;;;;;0.30;0.20;;;6.50;99.90;;;;;;5082087;28;20243;-82
2024/01/26 06:50:53;;;;;;;0.30;0.20;;;6.50;99.90;;;;;;5083590;28;20210;-79
2024/01/26 06:53:19;;;;;;;0.30;0.20;;;6.60;99.90;;;;;;5087391;28;20204;-82
2024/01/26 06:55:45;;;;;;;0.30;0.20;;;6.60;99.90;;;;;;5082172;28;20776;-78
2024/01/26 06:58:11;;;;;;;0.30;0.20;;;6.60;99.90;;;;;;5085331;28;20203;-78
2024/01/26 07:00:37;;;;;;;0.30;0.30;;;6.70;99.90;;;;;;5085956;28;20212;-78
2024/01/26 07:03:03;;;;;;;0.30;0.20;;;6.70;99.90;;;;;;5088693;28;20452;-78
2024/01/26 07:05:29;;;;;;;0.30;0.30;;;6.80;99.90;;;;;;5086477;28;20925;-78
2024/01/26 07:07:56;;;;;;;0.30;0.23;;;6.80;99.90;;;;;;5084857;28;20196;-78
2024/01/26 07:10:23;;;;;;;0.30;0.25;;;6.90;99.90;;;;;;5083410;28;20220;-78
2024/01/26 07:12:48;;;;;;;0.30;0.20;;;6.90;99.90;;;;;;5085194;28;20195;-78
2024/01/26 07:15:14;;;;;;;0.30;0.30;;;7.00;99.90;;;;;;5084913;28;20654;-78
2024/01/26 07:17:40;;;;;;;0.30;0.30;;;7.10;99.90;;;;;;5084545;28;20537;-82
2024/01/26 07:20:06;;;;;;;0.30;0.30;;;7.40;99.90;;;;;;5084274;28;20461;-83
2024/01/26 07:22:32;;;;;;;0.30;0.30;;;7.70;99.90;;;;;;5086068;28;20180;-78
2024/01/26 07:24:58;;;;;;;0.30;0.23;;;8.00;99.90;;;;;;5077265;28;20712;-79
2024/01/26 07:27:23;;;;;;;0.30;0.20;;;8.30;99.90;;;;;;5085719;28;20208;-78
2024/01/26 07:29:49;;;;;;;0.30;0.20;;;8.50;99.90;;;;;;5085640;28;20192;-78
2024/01/26 07:32:15;;;;;;;0.30;0.20;;;8.60;99.90;;;;;;5084434;28;20581;-83
2024/01/26 07:34:40;;;;;;;0.30;0.20;;;8.60;99.90;;;;;;5069290;28;20408;-83
2024/01/26 07:37:07;;;;;;;0.30;0.20;;;8.60;99.90;;;;;;5074875;28;20385;-79
2024/01/26 07:39:33;;;;;;;0.30;0.20;;;8.60;99.90;;;;;;5084083;28;20662;-79
2024/01/26 07:41:59;;;;;;;0.30;0.20;;;8.60;99.90;;;;;;5084984;28;20251;-83
2024/01/26 07:44:25;;;;;;;0.30;0.20;;;8.70;99.90;;;;;;5088154;28;20295;-79
2024/01/26 07:46:51;;;;;;;0.30;0.20;;;8.80;99.90;;;;;;5086755;28;20748;-83
2024/01/26 07:49:16;;;;;;;0.30;0.20;;;9.10;99.90;;;;;;5065361;28;20296;-80
2024/01/26 07:51:42;;;;;;;0.30;0.20;;;9.50;99.90;;;;;;5076104;28;20425;-79
2024/01/26 07:54:08;;;;;;;0.30;0.20;;;9.80;99.90;;;;;;5084247;28;20267;-79
2024/01/26 07:56:34;;;;;;;0.30;0.20;;;10.20;99.90;;;;;;5085321;28;20215;-79
2024/01/26 07:58:59;;;;;;;0.30;0.20;;;10.50;99.90;;;;;;5087687;28;20464;-83
2024/01/26 08:01:25;;;;;;;0.30;0.30;;;10.70;99.90;;;;;;5086284;28;20204;-83
2024/01/26 08:03:51;;;;;;;0.30;0.20;;;10.90;99.90;;;;;;5086008;28;20760;-80
2024/01/26 08:06:16;;;;;;;0.30;0.20;;;11.20;99.90;;;;;;5087190;28;20245;-84
2024/01/26 08:08:42;;;;;;;0.30;0.20;;;11.50;99.90;;;;;;5085279;28;20216;-83
2024/01/26 08:11:09;;;;;;;0.30;0.20;;;11.80;99.90;;;;;;5081389;28;20277;-79
2024/01/26 08:13:35;;;;;;;0.40;0.30;;;12.20;99.90;;;;;;5076467;28;20208;-78
2024/01/26 08:16:00;;;;;;;0.40;0.30;;;12.70;99.90;;;;;;5085024;28;20425;-79
2024/01/26 08:18:26;;;;;;;0.37;0.30;;;13.30;99.90;;;;;;5084180;28;20472;-83
2024/01/26 08:20:52;;;;;;;0.40;0.30;;;14.00;99.90;;;;;;5083722;28;20204;-83
2024/01/26 08:23:18;;;;;;;0.40;0.30;;;14.50;98.80;;;;;;5085251;28;20686;-79
2024/01/26 08:25:44;;;;;;;0.40;0.30;;;14.90;98.00;;;;;;5081416;28;20545;-82
2024/01/26 08:28:10;;;;;;;0.40;0.30;;;15.40;97.70;;;;;;5085227;28;20744;-79
2024/01/26 08:30:36;;;;;;;0.50;0.50;;;15.80;96.50;;;;;;5087631;28;20967;-79
2024/01/26 08:33:02;;;;;;;0.43;0.43;;;16.30;95.80;;;;;;5085852;28;20553;-83
2024/01/26 08:35:27;;;;;;;0.40;0.30;;;16.60;94.90;;;;;;5078570;28;20196;-83
2024/01/26 08:37:53;;;;;;;0.40;0.30;;;17.00;94.10;;;;;;5082779;28;20224;-84
2024/01/26 08:40:20;;;;;;;0.40;0.30;;;17.30;93.50;;;;;;5088408;28;20745;-83
2024/01/26 08:42:45;;;;;;;0.40;0.20;;;17.60;92.70;;;;;;5087182;28;20566;-84
2024/01/26 08:45:12;;;;;;;0.40;0.40;;;17.90;92.30;;;;;;5087054;28;20429;-84
2024/01/26 08:47:38;;;;;;;0.40;0.30;;;18.20;91.70;;;;;;5088738;28;20720;-79
2024/01/26 08:50:05;;;;;;;0.37;0.20;;;18.40;90.80;;;;;;5086426;28;20958;-83
2024/01/26 08:52:31;;;;;;;0.40;0.20;;;18.70;90.50;;;;;;5084892;28;20504;-79
2024/01/26 08:54:57;;;;;;;0.40;0.20;;;18.90;90.00;;;;;;5082097;28;20778;-82
2024/01/26 08:57:24;;;;;;;0.40;0.30;;;19.10;89.70;;;;;;5085186;28;20426;-83
2024/01/26 08:59:50;;;;;;;0.40;0.20;;;19.40;88.80;;;;;;5077639;28;20530;-79
2024/01/26 09:02:15;;;;;;;0.40;0.30;;;19.70;88.00;;;;;;5071139;28;20429;-79
2024/01/26 09:04:41;;;;;;;0.63;0.57;;;19.90;86.30;;;;;;5081913;28;20468;-82
2024/01/26 09:07:07;;;;;;;0.40;0.30;;;20.00;85.90;;;;;;5080605;28;20545;-82
2024/01/26 09:09:32;;;;;;;0.30;0.20;;;20.30;85.50;;;;;;5077132;28;20207;-83
2024/01/26 09:11:58;;;;;;;0.50;0.50;;;20.60;84.60;;;;;;5075735;28;20319;-83
2024/01/26 09:14:24;;;;;;;0.40;0.20;;;20.90;83.00;;;;;;5081362;28;20212;-79
2024/01/26 09:16:51;;;;;;;0.40;0.20;;;21.00;81.40;;;;;;5082578;28;20218;-82
2024/01/26 09:19:16;;;;;;;0.40;0.30;;;20.90;81.30;;;;;;5083279;28;20204;-82
2024/01/26 09:21:42;;;;;;;0.40;0.30;;;21.10;81.80;;;;;;5083380;28;20942;-82
2024/01/26 09:24:08;;;;;;;0.63;0.43;;;21.30;80.50;;;;;;5082230;28;20200;-85
2024/01/26 09:26:34;;;;;;;0.63;0.50;;;21.40;79.50;;;;;;5080629;28;20421;-83
2024/01/26 09:29:00;;;;;;;0.40;0.40;;;21.50;80.70;;;;;;5082197;28;20781;-85
2024/01/26 09:31:26;;;;;;;2.20;2.10;;;21.80;78.90;;;;;;5073517;28;20690;-83
2024/01/26 09:33:51;;;;;;;0.40;0.40;;;21.90;78.40;;;;;;5079767;28;20492;-82
2024/01/26 09:36:17;;;;;;;0.60;0.60;;;22.10;78.10;;;;;;5079420;28;20843;-82
2024/01/26 09:38:45;;;;;;;0.40;0.20;;;22.30;78.50;;;;;;5079258;28;20300;-82
2024/01/26 09:41:11;;;;;;;0.40;0.20;;;22.50;77.60;;;;;;5080728;28;20479;-82
2024/01/26 09:43:36;;;;;;;0.30;0.20;;;22.60;76.60;;;;;;5081002;28;20440;-79
2024/01/26 09:46:04;;;;;;;0.30;0.30;;;22.40;77.20;;;;;;5080190;28;20279;-78
2024/01/26 09:48:33;;;;;;;0.40;0.20;;;22.00;76.90;;;;;;5071246;28;20190;-80
2024/01/26 09:50:59;;;;;;;0.30;0.20;;;21.40;76.40;;;;;;5069873;28;20421;-84
2024/01/26 09:53:26;;;;;;;0.30;0.20;;;20.90;77.30;;;;;;5077993;28;20441;-78
2024/01/26 09:55:52;;;;;;;0.40;0.20;;;20.50;78.80;;;;;;5071788;28;20429;-82
2024/01/26 09:58:18;;;;;;;0.30;0.20;;;20.30;78.30;;;;;;5077896;28;20513;-79
2024/01/26 10:00:45;;;;;;;0.30;0.20;;;20.10;78.30;;;;;;5078753;28;21028;-79
2024/01/26 10:03:14;;;;;;;0.40;0.20;;;20.00;79.80;;;;;;5074113;28;20211;-79
2024/01/26 10:05:41;;;;;;;0.30;0.20;;;20.00;79.70;;;;;;5077731;28;20972;-83
2024/01/26 10:08:10;;;;;;;0.40;0.30;;;20.00;79.40;;;;;;5078724;28;20456;-78
2024/01/26 10:10:36;;;;;;;0.40;0.20;;;19.70;80.20;;;;;;5080384;28;20914;-79
2024/01/26 10:13:09;;;;;;;0.33;0.20;;;19.60;80.60;;;;;;5082850;28;20543;-83
2024/01/26 10:15:35;;;;;;;0.40;0.30;;;19.50;79.80;;;;;;5079125;28;20953;-83
2024/01/26 10:18:01;;;;;;;0.40;0.30;;;19.40;80.10;;;;;;5082799;28;20535;-79
2024/01/26 10:20:27;;;;;;;0.30;0.20;;;19.10;80.80;;;;;;5083759;28;20218;-83
2024/01/26 10:22:53;;;;;;;0.40;0.20;;;18.90;80.90;;;;;;5082966;28;20463;-83
2024/01/26 10:25:19;;;;;;;0.40;0.20;;;18.60;82.10;;;;;;5081335;28;20211;-83
2024/01/26 10:27:45;;;;;;;0.30;0.20;;;18.40;81.50;;;;;;5099375;28;20453;-79
2024/01/26 10:30:11;;;;;;;0.33;0.20;;;18.00;81.60;;;;;;5076369;28;20444;-83
2024/01/26 10:32:37;;;;;;;0.37;0.20;;;17.50;82.20;;;;;;5080948;28;20184;-83
2024/01/26 10:35:05;;;;;;;0.40;0.30;;;17.10;83.10;;;;;;5087341;28;20437;-79
2024/01/26 10:37:32;;;;;;;0.40;0.20;;;16.80;84.60;;;;;;5082666;28;20591;-79
2024/01/26 10:40:01;;;;;;;0.40;0.20;;;16.60;84.30;;;;;;5082937;28;20581;-79
2024/01/26 10:42:30;;;;;;;0.30;0.20;;;16.40;84.50;;;;;;5082856;28;20645;-83
2024/01/26 10:44:57;;;;;;;0.40;0.30;;;16.10;85.00;;;;;;5086680;28;20437;-83
2024/01/26 10:47:25;;;;;;;0.40;0.20;;;15.90;86.00;;;;;;5083635;28;20436;-79
2024/01/26 10:49:54;;;;;;;0.30;0.20;;;15.80;85.60;;;;;;5085431;28;20489;-83
2024/01/26 10:52:20;;;;;;;0.40;0.20;;;15.70;86.10;;;;;;5086150;28;20787;-83
2024/01/26 10:54:47;;;;;;;0.37;0.30;;;15.70;86.80;;;;;;5085789;28;21071;-83
2024/01/26 10:57:17;;;;;;;0.40;0.20;;;15.60;86.80;;;;;;5083404;28;20451;-79
2024/01/26 10:59:44;;;;;;;0.30;0.20;;;15.60;87.80;;;;;;5086695;28;20459;-79
2024/01/26 11:02:21;;;;;;;0.40;0.30;;;15.60;87.00;;;;;;5084969;28;20488;-83
2024/01/26 11:04:46;;;;;;;0.40;0.20;;;15.50;87.40;;;;;;5084158;28;20433;-78
2024/01/26 11:07:13;;;;;;;0.40;0.20;;;15.40;86.70;;;;;;5084873;28;20409;-79
2024/01/26 11:09:39;;;;;;;0.40;0.20;;;15.30;86.80;;;;;;5084543;28;20542;-83
2024/01/26 11:12:26;;;;;;;0.40;0.20;;;15.20;87.60;;;;;;5081969;28;21022;-83
2024/01/26 11:15:13;;;;;;;0.30;0.20;;;15.10;87.10;;;;;;5086131;28;20466;-79
2024/01/26 11:17:59;;;;;;;0.30;0.20;;;14.90;88.80;;;;;;5073733;28;20468;-79
2024/01/26 11:20:26;;;;;;;0.50;0.50;;;14.90;89.10;;;;;;5075778;28;20523;-83
2024/01/26 11:23:04;;;;;;;3.87;3.43;;;14.80;88.50;;;;;;5085760;28;20452;-79
2024/01/26 11:25:34;;;;;;;0.40;0.20;;;14.70;88.30;;;;;;5087653;28;20444;-84
2024/01/26 11:28:01;;;;;;;0.30;0.20;;;14.50;88.90;;;;;;5103672;28;20519;-78
2024/01/26 11:30:28;;;;;;;0.40;0.20;;;14.40;89.50;;;;;;5087186;28;20444;-83
2024/01/26 11:32:54;;;;;;;0.30;0.20;;;14.30;90.10;;;;;;5080624;28;20524;-78
2024/01/26 11:35:20;;;;;;;0.40;0.20;;;14.30;90.30;;;;;;5076185;28;21135;-79
2024/01/26 11:37:47;;;;;;;0.30;0.20;;;14.20;90.50;;;;;;5078995;28;20472;-79
2024/01/26 11:40:14;;;;;;;0.30;0.20;;;14.20;90.20;;;;;;5084069;28;20549;-79
2024/01/26 11:42:40;;;;;;;0.40;0.20;;;14.10;90.30;;;;;;5081350;28;20523;-83
2024/01/26 11:45:08;;;;;;;0.30;0.20;;;14.20;90.50;;;;;;5072897;28;20434;-78
2024/01/26 11:47:40;;;;;;;1.50;1.50;;;14.10;90.40;;;;;;5079686;28;20703;-78
2024/01/26 11:50:10;;;;;;;0.30;0.20;;;14.10;90.40;;;;;;5078517;28;21294;-82
2024/01/26 11:52:36;;;;;;;0.30;0.20;;;14.10;91.00;;;;;;5081680;28;20507;-78
2024/01/26 11:55:02;;;;;;;0.30;0.20;;;14.20;90.70;;;;;;5072515;28;20547;-78
2024/01/26 11:57:32;;;;;;;0.30;0.20;;;14.20;90.60;;;;;;5079248;28;20435;-78
2024/01/26 12:00:06;;;;;;;0.30;0.20;;;14.20;90.40;;;;;;5076978;28;20477;-78
2024/01/26 12:02:32;;;;;;;0.30;0.30;;;14.20;90.90;;;;;;5075587;28;20929;-83
2024/01/26 12:04:58;;;;;;;0.30;0.20;;;14.20;90.60;;;;;;5075194;28;20532;-78
2024/01/26 12:07:23;;;;;;;0.40;0.20;;;14.30;90.60;;;;;;5081404;28;20181;-78
2024/01/26 12:09:49;;;;;;;0.30;0.20;;;14.30;90.70;;;;;;5079110;28;20222;-83
2024/01/26 12:12:16;;;;;;;0.30;0.20;;;14.30;91.00;;;;;;5081566;28;20279;-78
2024/01/26 12:14:42;;;;;;;0.30;0.20;;;14.40;90.60;;;;;;5094585;28;20479;-82
2024/01/26 12:17:07;;;;;;;0.30;0.20;;;14.40;90.70;;;;;;5077027;28;20441;-82
2024/01/26 12:19:33;;;;;;;0.30;0.20;;;14.40;90.30;;;;;;5075685;28;20295;-78
2024/01/26 12:21:59;;;;;;;0.30;0.20;;;14.30;90.00;;;;;;5079312;28;20283;-77
2024/01/26 12:24:25;;;;;;;0.30;0.20;;;14.30;90.40;;;;;;5077436;28;20644;-80
2024/01/26 12:26:51;;;;;;;0.30;0.20;;;14.30;90.30;;;;;;5079750;28;20208;-80
2024/01/26 12:29:17;;;;;;;0.30;0.20;;;14.20;90.10;;;;;;5080885;28;20700;-80
2024/01/26 12:31:42;;;;;;;0.30;0.20;;;14.20;90.40;;;;;;5075369;28;20478;-85
2024/01/26 12:34:14;;;;;;;0.30;0.20;;;14.20;90.50;;;;;;5075150;28;20748;-84
2024/01/26 12:36:40;;;;;;;0.30;0.30;;;14.20;90.80;;;;;;5081467;28;20188;-82
2024/01/26 12:39:07;;;;;;;0.30;0.20;;;14.10;90.80;;;;;;5080192;28;20448;-82
2024/01/26 12:41:33;;;;;;;0.30;0.30;;;14.20;90.90;;;;;;5073358;28;20864;-82
2024/01/26 12:43:59;;;;;;;0.40;0.20;;;14.20;90.50;;;;;;5071098;28;20498;-79
2024/01/26 12:46:25;;;;;;;0.30;0.20;;;14.20;90.50;;;;;;5073330;28;20404;-83
2024/01/26 12:48:50;;;;;;;0.47;0.47;;;14.20;90.80;;;;;;5070449;28;20467;-82